Gwinnett County Detention Center

Sorted by Date of Admission

Public Information - 48 hour Docket Book

This document lists the most recent admissions to the Gwinnett County Detention Center This information is presented in Date order, beginning with the most recent admissions. Line items are by charge so you will see name and address information duplicated for each charge on an individual's booking. If the charge is blank the individual is in the booking process and has not had any charge(s) added yet. Bond amounts that are 0 or blank indicate that the individual has not been granted a bond on that individual charge. This data is live and constantly being updated. Each time you check the information, the data may be different. New inmates are constantly added, and you will find names and information will often change as inmate identities are verified and updated. I.E. if you run this report on two different occasions it will not be surprising for you to find differences in the two reports.
Admission Date Release Date Last Name First Name Middle Name Original Offender ID Offender ID Address Charge Bond Bond Type Arresting Agency Charges/Photo
05/25/2015 00:45SPICERLISACAROL9400770094007700 1150 W SHADBURN AVE, BUFORD GA 30518* VIOLATION OF PROBATION$0NBAuburn PDCharges
05/25/2015 00:34BUMBALOUGHFELICIAANNETTE9932420299324202 1400 JOE FRANK HARRIS PKWY, CARTERSVILLE GA 30120*DISORDERLY CONDUCT$140SBGwinnett County PoliceCharges
05/25/2015 00:28RUSSELLKEITHGENARO9952608199526081 , $Gwinnett County PoliceCharges
05/25/2015 00:03SCOTTDONAVANMORAIS9941786099417860 5326 PRINCETON TRAIL, NORCROSS GA 30093* BAIL JUMPING$5700CBGwinnett County PoliceCharges
05/24/2015 23:45MOOREJAMIESONDENNARD9943865099438650 4645 MIDRIDGE DR, NORCROSS GA 30093$Gwinnett County PoliceCharges
05/24/2015 23:35MOOREJOSEPHJAMES9948354399483543 4645 MIDRIDGE DR, NORCROSS GA 30093$Gwinnett County PoliceCharges
05/24/2015 23:33WILLIAMSMELVONKAHLIL9952608099526080 943 LANIER SPRINGS DR, BUFORD GA 300518FAILURE TO MAINTAIN INSURANCE$299SBGwinnett County SheriffCharges
05/24/2015 23:33WILLIAMSMELVONKAHLIL9952608099526080 943 LANIER SPRINGS DR, BUFORD GA 300518Violation of Probation$478.75CBGwinnett County SheriffCharges
05/24/2015 23:16JOSEPHMARCDONALD9952607999526079 5212 VIVID DR, STONE MOUNTAIN GA 30087@ * BATTERY$1850SBGwinnett County PoliceCharges
05/24/2015 23:12SMITHANDREDEWAYNE9950940999509409 152 MEADOWOOD SQ, LITHONIA GA 30038* VIOLATION OF PROBATION$0NBGwinnett County SheriffCharges
05/24/2015 23:01THOMASANGELVICTORIA9952607899526078 , @ * BATTERY$1850SBGwinnett County PoliceCharges
05/24/2015 22:46GUNBYDEXTERBERNARD9943126499431264 557 ASHTON MANOR DR, LOGANVILLE GA 30052FAILURE TO APPEAR$384CBGwinnett County SheriffCharges
05/24/2015 22:46GUNBYDEXTERBERNARD9943126499431264 557 ASHTON MANOR DR, LOGANVILLE GA 30052EXPIRED OR NO LICENSE PLATE OR DECAL$152SBGwinnett County SheriffCharges
05/24/2015 21:40KIMMIKYOUNG9952607799526077 2921 WILLOWSTONE DR, DULUTH GA 30096* CRIMINAL TRESPASS$1300SBGwinnett County PoliceCharges
05/24/2015 21:16PRICEVINSONANDER9912610499126139 1090 TEMPLE JOHNSON RD, LOGANVILLE GA 30052@ * SIMPLE BATTERY$1300SBSnellville PoliceCharges
05/24/2015 20:38GARFIAS HERNANDEZDINOCESEAR9952594299525951 3415 RIDGE BROOK TRL, DULUTH GA 30096FAILURE TO OBEY STOP SIGN$68SBGwinnett County PoliceCharges
05/24/2015 20:38GARFIAS HERNANDEZDINOCESEAR9952594299525951 3415 RIDGE BROOK TRL, DULUTH GA 30096* DRIVING WHILE LIC SUSP/REVOKED$705SBGwinnett County PoliceCharges
05/24/2015 20:35RAGSDALEHOWARD9952472299524722 202 OLD MILL LN, NORCROSS GA 30093* DUI - DRUGS/ALCOHOL$2006SBGwinnett County PoliceCharges
05/24/2015 20:35RAGSDALEHOWARD9952472299524722 202 OLD MILL LN, NORCROSS GA 30093*HIT & RUN-FAILURE TO STOP & RENDER AID$425SBGwinnett County PoliceCharges
05/24/2015 20:14MCCOMBSSAMANTHARUTH9951289099512890 1435 BOGGS ROAD APT 119, DULUTH GA 30096* AFFRAY$1300SBGwinnett County PoliceCharges
05/24/2015 20:13LYLESASIANANASIRA9952607699526076 1435 BOGGS ROAD APT# 119, DULUTH GA 30096* AFFRAY$1300SBGwinnett County PoliceCharges
05/24/2015 19:3805/05/2015 18:39SMITHGARYANTONIO9939062799390627 3556 PEACHTREE PKWY, SUWANEE GA 30024* DUI - DRUGS/ALCOHOL$0NBGwinnett County SheriffCharges
05/24/2015 19:3805/12/2015 19:32SMITHGARYANTONIO9939062799390627 3556 PEACHTREE PKWY, SUWANEE GA 30024* DUI - DRUGS/ALCOHOL$0NBGwinnett County SheriffCharges
05/24/2015 19:3805/19/2015 18:33SMITHGARYANTONIO9939062799390627 3556 PEACHTREE PKWY, SUWANEE GA 30024* DUI - DRUGS/ALCOHOL$0NBGwinnett County SheriffCharges
05/24/2015 19:3805/24/2015 19:39SMITHGARYANTONIO9939062799390627 3556 PEACHTREE PKWY, SUWANEE GA 30024* DUI - DRUGS/ALCOHOL$0NBGwinnett County SheriffCharges
05/24/2015 18:44MARTINEZ-PEREZJUANCARLOS9944780099447800 1148 FOREST VALLEY APT#2, NORCROSS GA 30083@ * BATTERY$2950SBGwinnett County PoliceCharges
05/24/2015 18:44MARTINEZ-PEREZJUANCARLOS9944780099447800 1148 FOREST VALLEY APT#2, NORCROSS GA 30083CRUELTY TO CHILDREN-3RD DEGREE$2950SBGwinnett County PoliceCharges
05/24/2015 18:0005/24/2015 21:16MILORDTIMOTHYALEX9952607499526074 1003 LEXUS DRIVE, LAWRENCEVILLE GA 30045FAILURE TO APPEAR$100FIGwinnett County SheriffCharges
05/24/2015 17:4505/25/2015 00:46GARNERBOBBYJAMES9905358599053585 2684 POWELL CT, MONROE GA 30656* DRIVING WHILE LIC SUSP/REVOKED$705CBGwinnett County PoliceCharges
05/24/2015 17:42AUTMANANDREAS9939655299396804 1206 CLUB PLACE, DULUTH GA 30096* GIVING FALSE NAME OR INFORMATION$1850SBGwinnett County PoliceCharges
05/24/2015 17:42AUTMANANDREAS9939655299396804 1206 CLUB PLACE, DULUTH GA 30096@ * THEFT BY SHOPLIFTING$1300SBGwinnett County PoliceCharges
05/24/2015 17:32ROSSJAMESALLEN9952607399526073 2292 MARTINGALE LANE, LAWRENCEVILLE GA 30049* CREDIT CARD FRAUD$0NBGwinnett County SheriffCharges
05/24/2015 17:32ROSSJAMESALLEN9952607399526073 2292 MARTINGALE LANE, LAWRENCEVILLE GA 30049@ * THEFT BY TAKING$1850SBGwinnett County SheriffCharges
05/24/2015 17:30LOGANARJUNA9950945199509451 6107 TRACY VALLEY DR, NORCROSS GA 30093* GIVING FALSE NAME OR INFORMATION$1850SBGwinnett County PoliceCharges
05/24/2015 17:30LOGANARJUNA9950945199509451 6107 TRACY VALLEY DR, NORCROSS GA 30093HOLD FOR OTHER AGENCY$0NBGwinnett County PoliceCharges
05/24/2015 17:2205/25/2015 00:55SPRINGFIELDANTHONYDWIGHT9950973199509731 515 TWIN BROOK WAY, LAWRENCEVILLE GA 30043NO BRAKE LIGHTS$56SBGwinnett County PoliceCharges
05/24/2015 17:2205/25/2015 00:55SPRINGFIELDANTHONYDWIGHT9950973199509731 515 TWIN BROOK WAY, LAWRENCEVILLE GA 30043POSSESSION OF LESS 1 OZ. MARIJUANA$585SBGwinnett County PoliceCharges
05/24/2015 17:22MORALES-ARREOLAMAURICIO9952607299526072 1348 ROMAN POINT DRIVE, NORCROSS GA 30093@ * BATTERY$2950SBNorcross PoliceCharges
05/24/2015 17:03SANCHEZ-HUERTAIRMA9937055799370557 2029 FENCE RD, DACULA GA 30019*NO DRIVERS LICENSE$705CBGwinnett County PoliceCharges
05/24/2015 17:03SANCHEZ-HUERTAIRMA9937055799370557 2029 FENCE RD, DACULA GA 30019IMPROPER/ERRATIC LANE CHANGE$96CBGwinnett County PoliceCharges
05/24/2015 17:00RODRIGUEZ-SANCHEZJORGEPEDRO9934119899341198 2029 FENCE RD, DACULA GA 30019*NO DRIVERS LICENSE$705CBGwinnett County PoliceCharges
05/24/2015 16:48WIGGLEYKEVINSCOTT9300334093003340 1681 LAWRENCEVILLE SUWANEE RD, LAWRENCEVILLE GA 30043$Gwinnett County PoliceCharges
05/24/2015 16:25ASHFORDANTONIOJAMIEL9943521699435216 1076 PIPER PLACE, LAWRENCEVILLE GA 30043HOLD FOR OTHER AGENCY$0NBGwinnett County PoliceCharges
05/24/2015 16:25ASHFORDANTONIOJAMIEL9943521699435216 1076 PIPER PLACE, LAWRENCEVILLE GA 30043FAILURE TO MAINTAIN INSURANCE$299SBGwinnett County PoliceCharges
05/24/2015 16:25ASHFORDANTONIOJAMIEL9943521699435216 1076 PIPER PLACE, LAWRENCEVILLE GA 30043* DRIVING WHILE LIC SUSP/REVOKED$705SBGwinnett County PoliceCharges
05/24/2015 16:1305/24/2015 20:10JONESRAYVONADRUCILA9952607199526071 1215 STONEY POINT, GRAYSON GA 30017*NO DRIVERS LICENSE$705SBGwinnett County PoliceCharges
05/24/2015 16:1305/24/2015 20:10JONESRAYVONADRUCILA9952607199526071 1215 STONEY POINT, GRAYSON GA 30017DEALER TAG REQUIRED$140SBGwinnett County PoliceCharges
05/24/2015 15:13JAMESKIMLUCILLE9917630499176304 1194 HARVEST DALE CT, STONE MOUNTAIN GA 30088@ * THEFT BY SHOPLIFTING$2950SBGwinnett County PoliceCharges
05/24/2015 14:55RIDLEYTOMASCASHE9945212299452122 2913 JASMINE PKWY, ALPHARETTA GA 30022* FORGERY-1ST DEGREE$3500SBGwinnett County PoliceCharges
05/24/2015 14:55RIDLEYTOMASCASHE9945212299452122 2913 JASMINE PKWY, ALPHARETTA GA 30022*FORGERY 1ST DEGREE$3500SBGwinnett County PoliceCharges
05/24/2015 14:55RIDLEYTOMASCASHE9945212299452122 2913 JASMINE PKWY, ALPHARETTA GA 30022*FORGERY 2ND DEGREE$3500SBGwinnett County PoliceCharges
05/24/2015 13:3005/24/2015 18:19MUHAMMADFATIHA9952606999526069 1100 INDIAN TRAIL LILBURN RD APT 1912, NORCROSS GA 30093@ * BATTERY$1300ORGwinnett County PoliceCharges
05/24/2015 13:21GARNETTCHERYLLYNN9952606799526067 1602 WINDY HILL PT, LAWRENCEVILLE GA 30046@ * THEFT BY TAKING$1300CBLawrenceville PoliceCharges
05/24/2015 13:0905/25/2015 00:44SANTIAGOJAIMIENDARIO9952606699526066 3400 SWEETWATER ROAD APT#1610, LAWRENCEVILLE GA 30044@ * BATTERY$1300SBGwinnett County PoliceCharges
05/24/2015 13:0905/25/2015 00:44SANTIAGOJAIMIENDARIO9952606699526066 3400 SWEETWATER ROAD APT#1610, LAWRENCEVILLE GA 30044CRUELTY TO CHILDREN-3RD DEGREE$1300SBGwinnett County PoliceCharges
05/24/2015 12:59SUTTONAMIELYNETTE9951738899517388 2491 CRUMPS LANDING CIR, SNELLVILLE GA 30039* THEFT BY SHOPLIFTING$788SBLawrenceville PoliceCharges
05/24/2015 12:5305/24/2015 21:07TOLBERTSERMAINESTARR9952606599526065 1231 THE FALLS PARKWAY, DULUTH GA 30096@ * RECKLESS CONDUCT$1300SBGwinnett County PoliceCharges
05/24/2015 12:5305/24/2015 21:07TOLBERTSERMAINESTARR9952606599526065 1231 THE FALLS PARKWAY, DULUTH GA 30096* CRIMINAL TRESPASS$1300SBGwinnett County PoliceCharges
05/24/2015 12:05WADEJUSTINLEE9937632999376329 2370 BROADNAX CT, LOGANVILLE GA 30052* VIOLATION OF PROBATION$0NBGwinnett County SheriffCharges
05/24/2015 11:2605/24/2015 18:22RUEDAJUAN9952606499526064 5605 CAESAR WAY, NORCROSS GA 30093FAILURE TO OBEY STOP SIGN$68CBGwinnett County PoliceCharges
05/24/2015 11:2605/24/2015 18:22RUEDAJUAN9952606499526064 5605 CAESAR WAY, NORCROSS GA 30093*NO DRIVERS LICENSE$705CBGwinnett County PoliceCharges
05/24/2015 10:1505/24/2015 14:31NEELYFRANCESELLAVIE9952606399526063 1784 PRESIDENTIAL CIR, SNELLVILLE GA 30078FAILURE TO APPEAR$805CBSnellville PoliceCharges
05/24/2015 09:50SIMMSDAVIDWAYNE9700570397005703 407 SKELTON RD, HOSCHTON GA 30548* VIOLATION OF PROBATION$0NBGwinnett County SheriffCharges
05/24/2015 09:42HARDENGEANEAUTRY9952606299526062 171 STONE MOUNTAIN STREET, LAWRENCEVILLE GA 30046@ * BATTERY$5700SBLawrenceville PoliceCharges
05/24/2015 09:42HARDENGEANEAUTRY9952606299526062 171 STONE MOUNTAIN STREET, LAWRENCEVILLE GA 30046FAILURE TO APPEAR$100CBLawrenceville PoliceCharges
05/24/2015 09:42HARDENGEANEAUTRY9952606299526062 171 STONE MOUNTAIN STREET, LAWRENCEVILLE GA 30046FAILURE TO APPEAR$59CBLawrenceville PoliceCharges
05/24/2015 08:0905/24/2015 15:03VASQUEZJOSEENRIQUE9950989199509891 6811 WINDFAIRE DR, NORCROSS GA 30093SPEEDING$215SBGwinnett County PoliceCharges
05/24/2015 08:0905/24/2015 15:03VASQUEZJOSEENRIQUE9950989199509891 6811 WINDFAIRE DR, NORCROSS GA 30093* DRIVING WHILE LIC SUSP/REVOKED$705SBGwinnett County PoliceCharges
05/24/2015 08:02LAIRAMYSUE9952606099526060 704 NORTH HOSKINS AVE, CAMPBELLSVILLE KY 42718SPEEDING 21-25 OVER$214.5SBSnellville PoliceCharges
05/24/2015 08:02LAIRAMYSUE9952606099526060 704 NORTH HOSKINS AVE, CAMPBELLSVILLE KY 42718Possession of Marijuana less 1oz$784SBSnellville PoliceCharges
05/24/2015 07:54RISBYTRAVISRASHAD9952605999526059 244 VINTAGE LANE, CAMPBELLSVILLE KY 42718Possession of Marijuana less 1oz$784SBSnellville PoliceCharges
05/24/2015 07:3305/24/2015 22:45JAGNELAMARM9952605899526058 1850 OAK HILL SPRINGS BLVD, LITHONIA GA 30058FAILURE TO APPEAR$1300SBGwinnett County SheriffCharges
05/24/2015 07:2405/05/2015 06:00PERRYBRUCEMICHAEL9911909199119091 1849 RIDGEWOOD CT, NORCROSS GA 30096* DUI - DRUGS/ALCOHOL$0NBGwinnett County SheriffCharges
05/24/2015 07:2405/05/2015 06:00PERRYBRUCEMICHAEL9911909199119091 1849 RIDGEWOOD CT, NORCROSS GA 30096* DUI - DRUGS/ALCOHOL$0NBGwinnett County SheriffCharges
05/24/2015 07:2405/12/2015 06:32PERRYBRUCEMICHAEL9911909199119091 1849 RIDGEWOOD CT, NORCROSS GA 30096* DUI - DRUGS/ALCOHOL$0NBGwinnett County SheriffCharges
05/24/2015 07:2405/12/2015 06:32PERRYBRUCEMICHAEL9911909199119091 1849 RIDGEWOOD CT, NORCROSS GA 30096* DUI - DRUGS/ALCOHOL$0NBGwinnett County SheriffCharges
05/24/2015 07:2405/19/2015 06:57PERRYBRUCEMICHAEL9911909199119091 1849 RIDGEWOOD CT, NORCROSS GA 30096* DUI - DRUGS/ALCOHOL$0NBGwinnett County SheriffCharges
05/24/2015 07:2405/19/2015 06:57PERRYBRUCEMICHAEL9911909199119091 1849 RIDGEWOOD CT, NORCROSS GA 30096* DUI - DRUGS/ALCOHOL$0NBGwinnett County SheriffCharges
05/24/2015 07:1405/24/2015 11:49BURKECHELSEAELIZABETH9952605799526057 120 SADDLEHORN CT, WOODSTOCK GA 30188DIS COND - PUBLIC INTOXICATION$140CBGwinnett County PoliceCharges
05/24/2015 07:1005/24/2015 16:22LASSITERBRANDONLEE9952605699526056 121 BASCOMB DR, WOODSTOCK GA 30189DIS COND - PUBLIC INTOXICATION$140CBGwinnett County PoliceCharges
05/24/2015 07:1005/24/2015 16:22LASSITERBRANDONLEE9952605699526056 121 BASCOMB DR, WOODSTOCK GA 30189POSSESSION OF LESS 1 OZ. MARIJUANA$585CBGwinnett County PoliceCharges
05/24/2015 06:2105/24/2015 15:24TEJADA-RIVERAJOSEMANUEL9944381799443817 1328 TURNER ROAD, LILBURN GA 30047FAILURE TO APPEAR$725CBGwinnett County PoliceCharges
05/24/2015 06:2105/24/2015 15:24TEJADA-RIVERAJOSEMANUEL9944381799443817 1328 TURNER ROAD, LILBURN GA 30047*NO DRIVERS LICENSE$705CBGwinnett County PoliceCharges
05/24/2015 06:2105/24/2015 15:24TEJADA-RIVERAJOSEMANUEL9944381799443817 1328 TURNER ROAD, LILBURN GA 30047IMPROPER/ERRATIC LANE CHANGE$68CBGwinnett County PoliceCharges
05/24/2015 05:5805/24/2015 13:25THOMPSONKEONDRIAS9952605599526068 6471 SPRING ST, LULA GA 30554SPEEDING$180SBGwinnett County PoliceCharges
05/24/2015 05:5805/24/2015 13:25THOMPSONKEONDRIAS9952605599526068 6471 SPRING ST, LULA GA 30554IMPROPER/ERRATIC LANE CHANGE$68SBGwinnett County PoliceCharges
05/24/2015 05:5805/24/2015 13:25THOMPSONKEONDRIAS9952605599526068 6471 SPRING ST, LULA GA 30554* DUI-ALCOHOL$2006SBGwinnett County PoliceCharges
05/24/2015 05:50RAMIREZ-IBARRAJAIME9950031699500316 5097 RAILS WAY, NORCROSS GA 30071*NO VALID LICENSE$860SBNorcross PoliceCharges
05/24/2015 05:50RAMIREZ-IBARRAJAIME9950031699500316 5097 RAILS WAY, NORCROSS GA 30071*DUI$1580SBNorcross PoliceCharges
05/24/2015 05:50RAMIREZ-IBARRAJAIME9950031699500316 5097 RAILS WAY, NORCROSS GA 30071FAILURE TO MAINTAIN LANE$210SBNorcross PoliceCharges
05/24/2015 05:2605/24/2015 12:05LEEGIBAEK9952605499526054 1114 SOUTH COLLEGE ST, AUBURN AL 38632FAILURE TO OBEY TRAFFIC DEVICE$56SBGwinnett County PoliceCharges
05/24/2015 05:2605/24/2015 12:05LEEGIBAEK9952605499526054 1114 SOUTH COLLEGE ST, AUBURN AL 38632* DUI-ALCOHOL$2006SBGwinnett County PoliceCharges
05/24/2015 04:4205/24/2015 11:28MORRISTIFFANYALEXANDRIA9952605399526053 1907 PEACH SHOALS CIR, DACULA GA 30019IMPROPER LN CHANGE/FAIL TO MAINTAIN LN$123SBSuwanee PoliceCharges
05/24/2015 04:4205/24/2015 11:28MORRISTIFFANYALEXANDRIA9952605399526053 1907 PEACH SHOALS CIR, DACULA GA 30019OPEN CONTAINER$286SBSuwanee PoliceCharges
05/24/2015 04:4205/24/2015 11:28MORRISTIFFANYALEXANDRIA9952605399526053 1907 PEACH SHOALS CIR, DACULA GA 30019UNDERAGE POSS ALCH$573SBSuwanee PoliceCharges
05/24/2015 04:4205/24/2015 11:28MORRISTIFFANYALEXANDRIA9952605399526053 1907 PEACH SHOALS CIR, DACULA GA 30019*DUI$1419.5SBSuwanee PoliceCharges
05/24/2015 04:34CERDATOMAS9939305399393053 2232 ROCKBRIDGE CT APT H75, NORCROSS GA 30093@ * BATTERY$0NBGwinnett County PoliceCharges
05/24/2015 04:34CERDATOMAS9939305399393053 2232 ROCKBRIDGE CT APT H75, NORCROSS GA 30093CRUELTY TO CHILDREN-3RD DEGREE$1300SBGwinnett County PoliceCharges
05/24/2015 04:34CERDATOMAS9939305399393053 2232 ROCKBRIDGE CT APT H75, NORCROSS GA 30093CRUELTY TO CHILDREN-3RD DEGREE$1300SBGwinnett County PoliceCharges
05/24/2015 04:34CERDATOMAS9939305399393053 2232 ROCKBRIDGE CT APT H75, NORCROSS GA 30093NO LICENSE PLATE$152SBGwinnett County PoliceCharges
05/24/2015 04:34CERDATOMAS9939305399393053 2232 ROCKBRIDGE CT APT H75, NORCROSS GA 30093HOLD FOR IMMIGRATION$0NBGwinnett County PoliceCharges
05/24/2015 04:34CERDATOMAS9939305399393053 2232 ROCKBRIDGE CT APT H75, NORCROSS GA 30093* DRIVING WHILE LIC SUSP/REVOKED$705SBGwinnett County PoliceCharges
05/24/2015 04:23HOWELLTIMOTHYLANE9106117791061177 120 GARNETT ST, BUFORD GA 30518FAILURE TO APPEAR$781CBGwinnett County PoliceCharges
05/24/2015 04:23HOWELLTIMOTHYLANE9106117791061177 120 GARNETT ST, BUFORD GA 30518FAILURE TO APPEAR$240CBGwinnett County PoliceCharges
05/24/2015 04:1005/24/2015 12:13DIMASERIKALYNN9952605299526052 1014 SUNNY FIELD LN, LAWRENCEVILLE GA 30043MINOR POSSESSION ALCOHOL$583SBSuwanee PoliceCharges
05/24/2015 04:1005/24/2015 12:13DIMASERIKALYNN9952605299526052 1014 SUNNY FIELD LN, LAWRENCEVILLE GA 30043OPEN CONTAINER$286SBSuwanee PoliceCharges
05/24/2015 04:0305/24/2015 17:08MEYERKURT9949454399494543 6175 WILD TIMBER RD, SUGAR HILL GA 30518UNDERAGE POSS ALCH$573SBSuwanee PoliceCharges
05/24/2015 04:0105/24/2015 19:14SLOANKEVINJAY9944613499446134 2162 LAZY DAYS RD, DACULA GA 30019SPEEDING 24-33 OVER$423.25SBDuluth PoliceCharges
05/24/2015 04:0105/24/2015 19:14SLOANKEVINJAY9944613499446134 2162 LAZY DAYS RD, DACULA GA 30019*DUI$1623SBDuluth PoliceCharges
05/24/2015 03:57SREYPHANNARATH9952605199526051 1429 DELANO AVN, MEMPHIS TN 38127*IMPROPER PASSING EMERGECY/TOWING/HWY VE$180SBGwinnett County PoliceCharges
05/24/2015 03:57SREYPHANNARATH9952605199526051 1429 DELANO AVN, MEMPHIS TN 38127* DUI-ALCOHOL$2006SBGwinnett County PoliceCharges
05/24/2015 03:52THOMPSONRONALDEDWARD9926392899263928 6362 MOSSY OAK LNDG, BRASELTON GA 30517DISORDERLY CONDUCT$276SBBraselton PDCharges
05/24/2015 03:52THOMPSONRONALDEDWARD9926392899263928 6362 MOSSY OAK LNDG, BRASELTON GA 30517* VIOLATION OF PROBATION$0NBBraselton PDCharges
05/24/2015 03:52THOMPSONRONALDEDWARD9926392899263928 6362 MOSSY OAK LNDG, BRASELTON GA 30517@ * SIMPLE ASSAULT$1300SBBraselton PDCharges
05/24/2015 03:52THOMPSONRONALDEDWARD9926392899263928 6362 MOSSY OAK LNDG, BRASELTON GA 30517@ * SIMPLE BATTERY$1300SBBraselton PDCharges
05/24/2015 03:52THOMPSONRONALDEDWARD9926392899263928 6362 MOSSY OAK LNDG, BRASELTON GA 30517@ * SIMPLE BATTERY$1300SBBraselton PDCharges
05/24/2015 03:52THOMPSONRONALDEDWARD9926392899263928 6362 MOSSY OAK LNDG, BRASELTON GA 30517@ * SIMPLE BATTERY$1300SBBraselton PDCharges
05/24/2015 03:52THOMPSONRONALDEDWARD9926392899263928 6362 MOSSY OAK LNDG, BRASELTON GA 30517@ * SIMPLE BATTERY$1300SBBraselton PDCharges
05/24/2015 03:4805/24/2015 16:18GONZALEZ-SANTIAGOJOSEFROYLAN9905270899052708 1083 IDLEWOOD DR, GRAYSON GA 30017SPEEDING / 1ST OFFENSE / 24-30 OVER$310CBLawrenceville PoliceCharges
05/24/2015 03:4805/24/2015 16:18GONZALEZ-SANTIAGOJOSEFROYLAN9905270899052708 1083 IDLEWOOD DR, GRAYSON GA 30017DRIVING WITHOUT VALID LICENSE$803CBLawrenceville PoliceCharges
05/24/2015 03:4805/24/2015 16:18GONZALEZ-SANTIAGOJOSEFROYLAN9905270899052708 1083 IDLEWOOD DR, GRAYSON GA 30017RECKLESS DRIVING$633CBLawrenceville PoliceCharges
05/24/2015 03:4805/24/2015 16:18GONZALEZ-SANTIAGOJOSEFROYLAN9905270899052708 1083 IDLEWOOD DR, GRAYSON GA 30017*DUI > .08 GRAM$1230CBLawrenceville PoliceCharges
05/24/2015 03:3705/24/2015 07:06WILSONJUSTINC9952605099526050 2720 SARDIS CHURCH ST, BUFORD GA 30519IMPROPER/ERRATIC LANE CHANGE$68CBGwinnett County PoliceCharges
05/24/2015 03:3705/24/2015 07:06WILSONJUSTINC9952605099526050 2720 SARDIS CHURCH ST, BUFORD GA 30519* DUI-ALCOHOL$2006CBGwinnett County PoliceCharges
05/24/2015 03:3705/24/2015 07:06WILSONJUSTINC9952605099526050 2720 SARDIS CHURCH ST, BUFORD GA 30519FAILURE TO KEEP IN PROPER LANE$68CBGwinnett County PoliceCharges
05/24/2015 03:10FRONTERA-RIOSANGELLUIS9951104199511041 3160 WOODBRIDGE CT, SNELLVILLE GA 30039*AGGRAVATED STALKING$0NBGwinnett County PoliceCharges
05/24/2015 03:10FRONTERA-RIOSANGELLUIS9951104199511041 3160 WOODBRIDGE CT, SNELLVILLE GA 30039* CRIMINAL TRESPASS$1850SBGwinnett County PoliceCharges
05/24/2015 03:10FRONTERA-RIOSANGELLUIS9951104199511041 3160 WOODBRIDGE CT, SNELLVILLE GA 30039CRUELTY TO CHILDREN-3RD DEGREE$1850SBGwinnett County PoliceCharges
05/24/2015 03:05EALYMELVIN9952604999526049 3015 REVERE CIR, SNELLVILLE GA 30039* CRIMINAL TRESPASS$1850SBGwinnett County PoliceCharges
05/24/2015 03:05EALYMELVIN9952604999526049 3015 REVERE CIR, SNELLVILLE GA 30039@ * SIMPLE ASSAULT$1850SBGwinnett County PoliceCharges
05/24/2015 03:05EALYMELVIN9952604999526049 3015 REVERE CIR, SNELLVILLE GA 30039HOLD FOR OTHER AGENCY$0NBGwinnett County PoliceCharges
05/24/2015 02:5205/24/2015 09:21KHALILWAFAIBRAHIM9952604899526048 2501 S ADAMS ST APT 101, ARLINGTON VA 22206TO BE IN PARK AFTER HOURS$135CBGwinnett County PoliceCharges
05/24/2015 02:5205/24/2015 09:21KHALILWAFAIBRAHIM9952604899526048 2501 S ADAMS ST APT 101, ARLINGTON VA 22206POSSESSION OF LESS 1 OZ. MARIJUANA$585CBGwinnett County PoliceCharges
05/24/2015 02:5105/24/2015 09:18OMERWEDADABDULAHI9952604799526047 1002 S QUINN ST, ARLINGTON VA 22204TO BE IN PARK AFTER HOURS$135CBGwinnett County PoliceCharges
05/24/2015 02:5105/24/2015 09:18OMERWEDADABDULAHI9952604799526047 1002 S QUINN ST, ARLINGTON VA 22204POSSESSION OF LESS 1 OZ. MARIJUANA$585CBGwinnett County PoliceCharges
05/24/2015 02:3805/24/2015 09:24ABDIWALID9952604699526046 3547 MONTHAVEN TRCE, SUWANEE GA 30024TO BE IN PARK AFTER HOURS$135CBGwinnett County PoliceCharges
05/24/2015 02:3805/24/2015 09:24ABDIWALID9952604699526046 3547 MONTHAVEN TRCE, SUWANEE GA 30024POSS OF < 1 OZ OF MARIJ.$585CBGwinnett County PoliceCharges
05/24/2015 02:2605/24/2015 08:23WHITEDWAYNEGERARD9948668399486683 147 NORTHDALE PL, LAWRENCEVILLE GA 30046POSSESSION OF MARIJUANA <1 OZ.$654SBLawrenceville PoliceCharges
05/24/2015 02:1905/24/2015 07:10HIERSCHARLESRYAN9952604599526045 900 LEGACY PARK DR APT 1522, LAWRENCEVILLE GA 30043IMPROPER/ERRATIC LANE CHANGE$68CBGwinnett County PoliceCharges
05/24/2015 02:1905/24/2015 07:10HIERSCHARLESRYAN9952604599526045 900 LEGACY PARK DR APT 1522, LAWRENCEVILLE GA 30043RACING$425CBGwinnett County PoliceCharges
05/24/2015 02:1905/24/2015 07:10HIERSCHARLESRYAN9952604599526045 900 LEGACY PARK DR APT 1522, LAWRENCEVILLE GA 30043SPEEDING$250CBGwinnett County PoliceCharges
05/24/2015 02:1905/24/2015 07:10HIERSCHARLESRYAN9952604599526045 900 LEGACY PARK DR APT 1522, LAWRENCEVILLE GA 30043RECKLESS DRIVING$420CBGwinnett County PoliceCharges
05/24/2015 01:56GONZALEZMARVINJOSE9952604499526044 501 CLUB PKWY, NORCROSS GA 30093IMPEDING THE FLOW OF TRAFFIC$68SBGwinnett County PoliceCharges
05/24/2015 01:56GONZALEZMARVINJOSE9952604499526044 501 CLUB PKWY, NORCROSS GA 30093*NO DRIVERS LICENSE$705SBGwinnett County PoliceCharges
05/24/2015 01:56GONZALEZMARVINJOSE9952604499526044 501 CLUB PKWY, NORCROSS GA 30093* DUI-ALCOHOL$2006SBGwinnett County PoliceCharges
05/24/2015 01:56GONZALEZMARVINJOSE9952604499526044 501 CLUB PKWY, NORCROSS GA 30093POSS OF OPEN ALCOHOL CONTAINER$299SBGwinnett County PoliceCharges
05/24/2015 01:4805/24/2015 12:22MCCORMICKJAMESDENNIS9939248799392487 2437 BERRY HALL ROAD SE, BETHLEHEM GA 30620PUBLIC DRUNK$213CBLawrenceville PoliceCharges
05/24/2015 01:3905/24/2015 10:52CRUZ-HERNANDEZFRANCISCO9952604399526043 2968 FIRST STREET, DULUTH GA 30096*LICENSE:DRIVING WHILE UNLIC. OR EXPIRED$731.25CBDuluth PoliceCharges
05/24/2015 01:3905/24/2015 10:52CRUZ-HERNANDEZFRANCISCO9952604399526043 2968 FIRST STREET, DULUTH GA 30096DRIVING WITHIN A GORE OR MEDIAN$129.25CBDuluth PoliceCharges
05/24/2015 01:3605/24/2015 05:49GADDYDANIELJEROME9952604299526042 4420 GROVE LAKE CT, LOGANVILLE GA 30052* POSS OF FIREARM BY CONVICTED FELON$5700SBLawrenceville PoliceCharges
05/24/2015 01:2705/24/2015 12:34RIDENOMARIGLENN9918510199185101 674 LOOKOUT CT, LAWRENCEVILLE GA 30043* DRIVING WHILE LIC SUSP/REVOKED$705SBGwinnett County PoliceCharges
05/24/2015 01:2705/24/2015 12:34RIDENOMARIGLENN9918510199185101 674 LOOKOUT CT, LAWRENCEVILLE GA 30043M/V MUST HAVE 2 HEADLIGHTS$68SBGwinnett County PoliceCharges
05/24/2015 01:1305/24/2015 22:51FARRELLTIMOTHYGERALD9952604199526041 1174 LAKE POINT WAY, SUWANEE GA 33024* PURCHASE OR POSS OF ALCOHOL BY MINOR$135CBGwinnett County PoliceCharges
05/24/2015 01:1105/24/2015 11:46SCHEIDLOGANDANIEL9952604099526040 1125MIDLAND WAY, LAWRENCEVILLE GA 30043* PURCHASE/POSS ALCOHOL PERSON UNDER 21$135SBGwinnett County PoliceCharges
05/24/2015 01:1105/24/2015 11:46SCHEIDLOGANDANIEL9952604099526040 1125MIDLAND WAY, LAWRENCEVILLE GA 30043PRESENTING DRIVER'S LIC OF ANOTHER$216SBGwinnett County PoliceCharges
05/24/2015 00:4705/24/2015 09:10DAVISKATHRYNMARIE9910246399102463 900 MOUNTAIN CREEK RD APT 0200, CHATTANOOGA TN 37405Violation of Probation$415CBLawrenceville PoliceCharges
05/24/2015 00:2705/24/2015 09:04HENAO-OSORNOANGELOFABIAN9952603999526039 1502 MEADOWOOD CMN, NORCROSS GA @ * SIMPLE BATTERY$2950SBNorcross PoliceCharges
05/24/2015 00:0405/24/2015 06:31SMITHSYDNEYSHEA9952603899526038 711 HOLCOMBS POND CT, ALPHARETTA GA 30022Failure to Appear$510CBGwinnett County PoliceCharges